sensor_id;sensor_type;location;lat;lon;timestamp;pressure;altitude;pressure_sealevel;temperature;humidity
35023;BME280;21214;44.912;8.204;2023-07-24T00:00:38;99418.91;;;25.29;100.00
35023;BME280;21214;44.912;8.204;2023-07-24T00:03:05;99415.31;;;25.23;100.00
35023;BME280;21214;44.912;8.204;2023-07-24T00:05:31;99414.03;;;25.26;100.00
35023;BME280;21214;44.912;8.204;2023-07-24T00:07:56;99412.38;;;25.25;100.00
35023;BME280;21214;44.912;8.204;2023-07-24T00:10:21;99412.38;;;25.25;100.00
35023;BME280;21214;44.912;8.204;2023-07-24T00:12:47;99408.25;;;25.22;100.00
35023;BME280;21214;44.912;8.204;2023-07-24T00:15:12;99405.13;;;25.14;100.00
35023;BME280;21214;44.912;8.204;2023-07-24T00:17:37;99398.72;;;25.03;100.00
35023;BME280;21214;44.912;8.204;2023-07-24T00:20:03;99408.97;;;24.90;100.00
35023;BME280;21214;44.912;8.204;2023-07-24T00:22:28;99410.78;;;24.61;100.00
35023;BME280;21214;44.912;8.204;2023-07-24T00:24:54;99411.13;;;24.41;100.00
35023;BME280;21214;44.912;8.204;2023-07-24T00:27:19;99403.63;;;24.43;100.00
35023;BME280;21214;44.912;8.204;2023-07-24T00:29:44;99413.50;;;24.26;100.00
35023;BME280;21214;44.912;8.204;2023-07-24T00:32:10;99420.00;;;24.06;100.00
35023;BME280;21214;44.912;8.204;2023-07-24T00:34:35;99406.75;;;24.17;100.00
35023;BME280;21214;44.912;8.204;2023-07-24T00:37:01;99403.16;;;24.23;100.00
35023;BME280;21214;44.912;8.204;2023-07-24T00:39:27;99416.84;;;24.09;100.00
35023;BME280;21214;44.912;8.204;2023-07-24T00:41:55;99412.38;;;23.92;100.00
35023;BME280;21214;44.912;8.204;2023-07-24T00:44:21;99398.91;;;24.03;100.00
35023;BME280;21214;44.912;8.204;2023-07-24T00:46:46;99393.78;;;24.14;100.00
35023;BME280;21214;44.912;8.204;2023-07-24T00:49:12;99397.78;;;24.23;100.00
35023;BME280;21214;44.912;8.204;2023-07-24T00:51:37;99392.50;;;24.28;100.00
35023;BME280;21214;44.912;8.204;2023-07-24T00:54:03;99397.78;;;24.23;100.00
35023;BME280;21214;44.912;8.204;2023-07-24T00:56:30;99381.13;;;24.26;100.00
35023;BME280;21214;44.912;8.204;2023-07-24T00:58:56;99362.84;;;24.28;100.00
35023;BME280;21214;44.912;8.204;2023-07-24T01:01:22;99369.41;;;24.32;100.00
35023;BME280;21214;44.912;8.204;2023-07-24T01:03:47;99384.16;;;24.18;100.00
35023;BME280;21214;44.912;8.204;2023-07-24T01:06:14;99384.88;;;24.25;100.00
35023;BME280;21214;44.912;8.204;2023-07-24T01:08:39;99381.97;;;24.26;100.00
35023;BME280;21214;44.912;8.204;2023-07-24T01:11:47;99390.97;;;24.08;100.00
35023;BME280;21214;44.912;8.204;2023-07-24T01:13:57;99382.59;;;23.87;100.00
35023;BME280;21214;44.912;8.204;2023-07-24T01:16:25;99368.69;;;24.01;100.00
35023;BME280;21214;44.912;8.204;2023-07-24T01:18:51;99356.16;;;24.07;100.00
35023;BME280;21214;44.912;8.204;2023-07-24T01:21:20;99347.13;;;24.01;100.00
35023;BME280;21214;44.912;8.204;2023-07-24T01:23:55;99335.41;;;23.96;100.00
35023;BME280;21214;44.912;8.204;2023-07-24T01:26:23;99342.19;;;23.98;100.00
35023;BME280;21214;44.912;8.204;2023-07-24T01:28:50;99345.69;;;23.87;100.00
35023;BME280;21214;44.912;8.204;2023-07-24T01:31:15;99344.44;;;23.90;100.00
35023;BME280;21214;44.912;8.204;2023-07-24T01:33:42;99340.69;;;23.91;100.00
35023;BME280;21214;44.912;8.204;2023-07-24T01:36:07;99346.75;;;23.86;100.00
35023;BME280;21214;44.912;8.204;2023-07-24T01:38:33;99342.28;;;23.68;100.00
35023;BME280;21214;44.912;8.204;2023-07-24T01:40:59;99330.22;;;23.48;100.00
35023;BME280;21214;44.912;8.204;2023-07-24T01:43:24;99285.03;;;23.50;100.00
35023;BME280;21214;44.912;8.204;2023-07-24T01:45:52;99218.50;;;23.62;100.00
35023;BME280;21214;44.912;8.204;2023-07-24T01:48:17;99234.91;;;23.60;100.00
35023;BME280;21214;44.912;8.204;2023-07-24T01:50:43;99281.03;;;23.64;100.00
35023;BME280;21214;44.912;8.204;2023-07-24T01:53:08;99292.41;;;23.66;100.00
35023;BME280;21214;44.912;8.204;2023-07-24T01:55:34;99290.88;;;23.70;100.00
35023;BME280;21214;44.912;8.204;2023-07-24T01:58:00;99297.31;;;23.69;100.00
35023;BME280;21214;44.912;8.204;2023-07-24T02:00:25;99327.06;;;23.74;100.00
35023;BME280;21214;44.912;8.204;2023-07-24T02:02:56;99309.72;;;23.82;100.00
35023;BME280;21214;44.912;8.204;2023-07-24T02:05:21;99305.75;;;23.84;100.00
35023;BME280;21214;44.912;8.204;2023-07-24T02:07:47;99311.88;;;23.91;100.00
35023;BME280;21214;44.912;8.204;2023-07-24T02:10:12;99321.34;;;23.94;100.00
35023;BME280;21214;44.912;8.204;2023-07-24T02:12:37;99337.28;;;23.95;100.00
35023;BME280;21214;44.912;8.204;2023-07-24T02:15:03;99362.69;;;23.99;100.00
35023;BME280;21214;44.912;8.204;2023-07-24T02:17:28;99381.78;;;23.98;100.00
35023;BME280;21214;44.912;8.204;2023-07-24T02:19:54;99401.97;;;23.95;100.00
35023;BME280;21214;44.912;8.204;2023-07-24T02:22:20;99403.22;;;23.93;100.00
35023;BME280;21214;44.912;8.204;2023-07-24T02:24:45;99418.94;;;23.96;100.00
35023;BME280;21214;44.912;8.204;2023-07-24T02:27:12;99421.06;;;23.94;100.00
35023;BME280;21214;44.912;8.204;2023-07-24T02:29:37;99423.63;;;23.89;100.00
35023;BME280;21214;44.912;8.204;2023-07-24T02:32:03;99426.09;;;23.90;100.00
35023;BME280;21214;44.912;8.204;2023-07-24T02:34:29;99415.31;;;23.90;100.00
35023;BME280;21214;44.912;8.204;2023-07-24T02:36:54;99405.34;;;23.91;100.00
35023;BME280;21214;44.912;8.204;2023-07-24T02:39:20;99394.91;;;23.94;100.00
35023;BME280;21214;44.912;8.204;2023-07-24T02:41:46;99389.09;;;23.97;100.00
35023;BME280;21214;44.912;8.204;2023-07-24T02:44:12;99379.47;;;24.01;100.00
35023;BME280;21214;44.912;8.204;2023-07-24T02:46:37;99363.84;;;24.03;100.00
35023;BME280;21214;44.912;8.204;2023-07-24T02:49:03;99341.25;;;24.04;100.00
35023;BME280;21214;44.912;8.204;2023-07-24T02:51:28;99329.66;;;24.04;100.00
35023;BME280;21214;44.912;8.204;2023-07-24T02:53:54;99298.59;;;24.01;100.00
35023;BME280;21214;44.912;8.204;2023-07-24T02:56:19;99286.88;;;24.07;100.00
35023;BME280;21214;44.912;8.204;2023-07-24T02:58:45;99266.97;;;24.08;100.00
35023;BME280;21214;44.912;8.204;2023-07-24T03:01:11;99247.97;;;24.03;100.00
35023;BME280;21214;44.912;8.204;2023-07-24T03:03:39;99253.50;;;24.08;100.00
35023;BME280;21214;44.912;8.204;2023-07-24T03:06:05;99238.00;;;24.04;100.00
35023;BME280;21214;44.912;8.204;2023-07-24T03:08:31;99236.72;;;24.06;100.00
35023;BME280;21214;44.912;8.204;2023-07-24T03:10:56;99251.63;;;24.09;100.00
35023;BME280;21214;44.912;8.204;2023-07-24T03:13:22;99242.69;;;24.08;100.00
35023;BME280;21214;44.912;8.204;2023-07-24T03:15:56;99229.22;;;24.08;100.00
35023;BME280;21214;44.912;8.204;2023-07-24T03:18:22;99260.16;;;24.06;100.00
35023;BME280;21214;44.912;8.204;2023-07-24T03:20:49;99280.78;;;24.00;100.00
35023;BME280;21214;44.912;8.204;2023-07-24T03:23:14;99285.94;;;24.02;100.00
35023;BME280;21214;44.912;8.204;2023-07-24T03:25:40;99288.38;;;24.03;100.00
35023;BME280;21214;44.912;8.204;2023-07-24T03:28:05;99282.91;;;23.98;100.00
35023;BME280;21214;44.912;8.204;2023-07-24T03:30:30;99287.13;;;23.94;100.00
35023;BME280;21214;44.912;8.204;2023-07-24T03:32:56;99268.50;;;23.93;100.00
35023;BME280;21214;44.912;8.204;2023-07-24T03:35:22;99258.53;;;23.93;100.00
35023;BME280;21214;44.912;8.204;2023-07-24T03:37:47;99265.22;;;23.91;100.00
35023;BME280;21214;44.912;8.204;2023-07-24T03:40:12;99250.81;;;23.85;100.00
35023;BME280;21214;44.912;8.204;2023-07-24T03:42:38;99250.34;;;23.77;100.00
35023;BME280;21214;44.912;8.204;2023-07-24T03:45:04;99254.69;;;23.78;100.00
35023;BME280;21214;44.912;8.204;2023-07-24T03:47:29;99258.53;;;23.70;100.00
35023;BME280;21214;44.912;8.204;2023-07-24T03:49:55;99237.47;;;23.67;100.00
35023;BME280;21214;44.912;8.204;2023-07-24T03:52:20;99241.69;;;23.63;100.00
35023;BME280;21214;44.912;8.204;2023-07-24T03:54:46;99238.66;;;23.48;100.00
35023;BME280;21214;44.912;8.204;2023-07-24T03:57:11;99240.28;;;23.49;100.00
35023;BME280;21214;44.912;8.204;2023-07-24T03:59:36;99271.94;;;23.23;100.00
35023;BME280;21214;44.912;8.204;2023-07-24T04:02:02;99262.94;;;23.30;100.00
35023;BME280;21214;44.912;8.204;2023-07-24T04:04:27;99263.75;;;23.18;100.00
35023;BME280;21214;44.912;8.204;2023-07-24T04:06:52;99291.25;;;23.20;100.00
35023;BME280;21214;44.912;8.204;2023-07-24T04:09:18;99312.63;;;23.15;100.00
35023;BME280;21214;44.912;8.204;2023-07-24T04:11:43;99340.63;;;23.14;100.00
35023;BME280;21214;44.912;8.204;2023-07-24T04:14:09;99347.88;;;22.66;100.00
35023;BME280;21214;44.912;8.204;2023-07-24T04:16:34;99357.75;;;22.72;100.00
35023;BME280;21214;44.912;8.204;2023-07-24T04:19:00;99351.69;;;22.76;100.00
35023;BME280;21214;44.912;8.204;2023-07-24T04:21:25;99341.63;;;22.72;100.00
35023;BME280;21214;44.912;8.204;2023-07-24T04:23:50;99327.75;;;22.86;100.00
35023;BME280;21214;44.912;8.204;2023-07-24T04:26:16;99299.50;;;22.96;100.00
35023;BME280;21214;44.912;8.204;2023-07-24T04:28:41;99287.00;;;23.01;100.00
35023;BME280;21214;44.912;8.204;2023-07-24T04:31:06;99273.78;;;23.11;100.00
35023;BME280;21214;44.912;8.204;2023-07-24T04:33:32;99271.47;;;23.15;100.00
35023;BME280;21214;44.912;8.204;2023-07-24T04:35:57;99280.13;;;23.17;100.00
35023;BME280;21214;44.912;8.204;2023-07-24T04:38:22;99273.00;;;23.22;100.00
35023;BME280;21214;44.912;8.204;2023-07-24T04:40:48;99267.72;;;23.27;100.00
35023;BME280;21214;44.912;8.204;2023-07-24T04:43:13;99260.38;;;23.35;100.00
35023;BME280;21214;44.912;8.204;2023-07-24T04:45:38;99261.09;;;23.42;100.00
35023;BME280;21214;44.912;8.204;2023-07-24T04:48:04;99266.47;;;23.42;100.00
35023;BME280;21214;44.912;8.204;2023-07-24T04:50:29;99275.69;;;23.34;100.00
35023;BME280;21214;44.912;8.204;2023-07-24T04:52:55;99293.84;;;23.39;100.00
35023;BME280;21214;44.912;8.204;2023-07-24T04:55:20;99295.03;;;23.43;100.00
35023;BME280;21214;44.912;8.204;2023-07-24T04:57:46;99295.50;;;23.40;100.00
35023;BME280;21214;44.912;8.204;2023-07-24T05:00:12;99297.13;;;23.41;100.00
35023;BME280;21214;44.912;8.204;2023-07-24T05:02:37;99295.63;;;23.45;100.00
35023;BME280;21214;44.912;8.204;2023-07-24T05:05:02;99282.16;;;23.45;100.00
35023;BME280;21214;44.912;8.204;2023-07-24T05:07:28;99278.00;;;23.49;100.00
35023;BME280;21214;44.912;8.204;2023-07-24T05:09:53;99265.09;;;23.51;100.00
35023;BME280;21214;44.912;8.204;2023-07-24T05:12:18;99245.19;;;23.52;100.00
35023;BME280;21214;44.912;8.204;2023-07-24T05:14:44;99244.75;;;23.55;100.00
35023;BME280;21214;44.912;8.204;2023-07-24T05:17:09;99230.06;;;23.62;100.00
35023;BME280;21214;44.912;8.204;2023-07-24T05:19:34;99222.59;;;23.64;100.00
35023;BME280;21214;44.912;8.204;2023-07-24T05:22:00;99225.50;;;23.63;100.00
35023;BME280;21214;44.912;8.204;2023-07-24T05:24:25;99217.31;;;23.70;100.00
35023;BME280;21214;44.912;8.204;2023-07-24T05:26:50;99220.38;;;23.73;100.00
35023;BME280;21214;44.912;8.204;2023-07-24T05:29:16;99212.97;;;23.68;100.00
35023;BME280;21214;44.912;8.204;2023-07-24T05:31:41;99221.31;;;23.67;100.00
35023;BME280;21214;44.912;8.204;2023-07-24T05:34:07;99233.97;;;23.78;100.00
35023;BME280;21214;44.912;8.204;2023-07-24T05:36:32;99248.00;;;23.80;100.00
35023;BME280;21214;44.912;8.204;2023-07-24T05:38:58;99257.50;;;23.83;100.00
35023;BME280;21214;44.912;8.204;2023-07-24T05:41:23;99275.19;;;23.90;100.00
35023;BME280;21214;44.912;8.204;2023-07-24T05:43:48;99278.44;;;23.92;100.00
35023;BME280;21214;44.912;8.204;2023-07-24T05:46:14;99280.78;;;24.00;100.00
35023;BME280;21214;44.912;8.204;2023-07-24T05:48:39;99274.91;;;24.03;100.00
35023;BME280;21214;44.912;8.204;2023-07-24T05:51:04;99285.25;;;24.06;100.00
35023;BME280;21214;44.912;8.204;2023-07-24T05:53:29;99279.94;;;24.12;100.00
35023;BME280;21214;44.912;8.204;2023-07-24T05:55:58;99288.78;;;24.19;100.00
35023;BME280;21214;44.912;8.204;2023-07-24T05:58:25;99284.53;;;24.23;100.00
35023;BME280;21214;44.912;8.204;2023-07-24T06:00:50;99275.88;;;24.21;100.00
35023;BME280;21214;44.912;8.204;2023-07-24T06:03:15;99265.31;;;24.31;100.00
35023;BME280;21214;44.912;8.204;2023-07-24T06:05:40;99277.25;;;24.35;100.00
35023;BME280;21214;44.912;8.204;2023-07-24T06:08:06;99281.22;;;24.44;100.00
35023;BME280;21214;44.912;8.204;2023-07-24T06:10:33;99285.16;;;24.53;100.00
35023;BME280;21214;44.912;8.204;2023-07-24T06:12:59;99278.81;;;24.59;100.00
35023;BME280;21214;44.912;8.204;2023-07-24T06:15:24;99277.34;;;24.68;100.00
35023;BME280;21214;44.912;8.204;2023-07-24T06:20:25;99262.53;;;24.82;100.00
35023;BME280;21214;44.912;8.204;2023-07-24T06:22:51;99251.97;;;24.81;100.00
35023;BME280;21214;44.912;8.204;2023-07-24T06:25:16;99246.41;;;24.87;100.00
35023;BME280;21214;44.912;8.204;2023-07-24T06:27:42;99229.53;;;24.92;100.00
35023;BME280;21214;44.912;8.204;2023-07-24T06:30:07;99238.53;;;24.98;100.00
35023;BME280;21214;44.912;8.204;2023-07-24T06:32:32;99246.72;;;25.03;100.00
35023;BME280;21214;44.912;8.204;2023-07-24T06:35:01;99259.00;;;25.10;100.00
35023;BME280;21214;44.912;8.204;2023-07-24T06:37:27;99258.84;;;25.17;100.00
35023;BME280;21214;44.912;8.204;2023-07-24T06:39:53;99259.50;;;25.24;100.00
35023;BME280;21214;44.912;8.204;2023-07-24T06:42:18;99259.03;;;25.27;100.00
35023;BME280;21214;44.912;8.204;2023-07-24T06:44:44;99258.84;;;25.34;100.00
35023;BME280;21214;44.912;8.204;2023-07-24T06:47:10;99255.44;;;25.38;100.00
35023;BME280;21214;44.912;8.204;2023-07-24T06:49:35;99249.19;;;25.38;100.00
35023;BME280;21214;44.912;8.204;2023-07-24T06:52:01;99254.44;;;25.44;100.00
35023;BME280;21214;44.912;8.204;2023-07-24T06:54:27;99256.06;;;25.45;100.00
35023;BME280;21214;44.912;8.204;2023-07-24T06:56:52;99260.47;;;25.51;100.00
35023;BME280;21214;44.912;8.204;2023-07-24T06:59:19;99260.97;;;25.48;100.00
35023;BME280;21214;44.912;8.204;2023-07-24T07:01:45;99272.91;;;25.52;100.00
35023;BME280;21214;44.912;8.204;2023-07-24T07:04:10;99271.16;;;25.58;100.00
35023;BME280;21214;44.912;8.204;2023-07-24T07:18:51;99288.53;;;25.62;100.00
35023;BME280;21214;44.912;8.204;2023-07-24T07:21:19;99284.56;;;25.69;100.00
35023;BME280;21214;44.912;8.204;2023-07-24T07:23:44;99295.06;;;25.66;100.00
35023;BME280;21214;44.912;8.204;2023-07-24T07:26:10;99292.75;;;25.75;100.00
35023;BME280;21214;44.912;8.204;2023-07-24T07:28:35;99297.75;;;25.83;100.00
35023;BME280;21214;44.912;8.204;2023-07-24T07:31:02;99300.59;;;25.93;100.00
35023;BME280;21214;44.912;8.204;2023-07-24T07:33:28;99284.44;;;25.98;100.00
35023;BME280;21214;44.912;8.204;2023-07-24T07:35:55;99286.00;;;25.94;100.00
35023;BME280;21214;44.912;8.204;2023-07-24T07:38:21;99277.41;;;25.97;100.00
35023;BME280;21214;44.912;8.204;2023-07-24T07:40:47;99281.31;;;26.06;100.00
35023;BME280;21214;44.912;8.204;2023-07-24T07:43:13;99270.63;;;26.16;100.00
35023;BME280;21214;44.912;8.204;2023-07-24T07:45:38;99260.13;;;26.20;100.00
35023;BME280;21214;44.912;8.204;2023-07-24T07:48:04;99250.00;;;26.27;100.00
35023;BME280;21214;44.912;8.204;2023-07-24T07:50:29;99246.56;;;26.36;100.00
35023;BME280;21214;44.912;8.204;2023-07-24T07:52:55;99259.84;;;26.38;100.00
35023;BME280;21214;44.912;8.204;2023-07-24T07:55:23;99262.22;;;26.34;100.00
35023;BME280;21214;44.912;8.204;2023-07-24T07:57:48;99269.34;;;26.40;100.00
35023;BME280;21214;44.912;8.204;2023-07-24T08:00:14;99268.34;;;26.46;100.00
35023;BME280;21214;44.912;8.204;2023-07-24T08:02:43;99277.03;;;26.48;100.00
35023;BME280;21214;44.912;8.204;2023-07-24T08:05:09;99290.38;;;26.55;100.00
35023;BME280;21214;44.912;8.204;2023-07-24T08:07:35;99302.56;;;26.58;100.00
35023;BME280;21214;44.912;8.204;2023-07-24T08:10:00;99303.66;;;26.57;100.00
35023;BME280;21214;44.912;8.204;2023-07-24T08:12:26;99301.25;;;26.60;100.00
35023;BME280;21214;44.912;8.204;2023-07-24T08:14:52;99306.66;;;26.60;100.00
35023;BME280;21214;44.912;8.204;2023-07-24T08:17:17;99296.94;;;26.64;100.00
35023;BME280;21214;44.912;8.204;2023-07-24T08:19:42;99304.00;;;26.65;100.00
35023;BME280;21214;44.912;8.204;2023-07-24T08:22:08;99307.59;;;26.71;100.00
35023;BME280;21214;44.912;8.204;2023-07-24T08:24:34;99303.25;;;26.70;100.00
35023;BME280;21214;44.912;8.204;2023-07-24T08:27:00;99295.63;;;26.67;100.00
35023;BME280;21214;44.912;8.204;2023-07-24T08:29:25;99298.34;;;26.67;100.00
35023;BME280;21214;44.912;8.204;2023-07-24T08:31:51;99292.34;;;26.65;100.00
35023;BME280;21214;44.912;8.204;2023-07-24T08:34:16;99289.59;;;26.60;100.00
35023;BME280;21214;44.912;8.204;2023-07-24T08:36:41;99275.00;;;26.61;100.00
35023;BME280;21214;44.912;8.204;2023-07-24T08:39:07;99266.31;;;26.59;100.00
35023;BME280;21214;44.912;8.204;2023-07-24T08:41:32;99249.00;;;26.60;100.00
35023;BME280;21214;44.912;8.204;2023-07-24T08:43:59;99256.81;;;26.56;100.00
35023;BME280;21214;44.912;8.204;2023-07-24T08:46:25;99261.41;;;26.56;100.00
35023;BME280;21214;44.912;8.204;2023-07-24T08:48:50;99254.38;;;26.55;100.00
35023;BME280;21214;44.912;8.204;2023-07-24T08:51:17;99249.44;;;26.52;100.00
35023;BME280;21214;44.912;8.204;2023-07-24T08:53:44;99239.09;;;26.43;100.00
35023;BME280;21214;44.912;8.204;2023-07-24T08:56:10;99234.16;;;26.40;100.00
35023;BME280;21214;44.912;8.204;2023-07-24T08:58:37;99239.28;;;26.37;100.00
35023;BME280;21214;44.912;8.204;2023-07-24T09:01:04;99237.41;;;26.37;100.00
35023;BME280;21214;44.912;8.204;2023-07-24T09:03:31;99235.75;;;26.36;100.00
35023;BME280;21214;44.912;8.204;2023-07-24T09:05:57;99231.66;;;26.34;100.00
35023;BME280;21214;44.912;8.204;2023-07-24T09:08:32;99221.34;;;26.31;100.00
35023;BME280;21214;44.912;8.204;2023-07-24T09:10:58;99233.47;;;26.28;100.00
35023;BME280;21214;44.912;8.204;2023-07-24T09:13:24;99223.63;;;26.22;100.00
35023;BME280;21214;44.912;8.204;2023-07-24T09:15:49;99202.19;;;26.16;100.00
35023;BME280;21214;44.912;8.204;2023-07-24T09:18:15;99194.84;;;26.11;100.00
35023;BME280;21214;44.912;8.204;2023-07-24T09:20:42;99214.09;;;26.15;100.00
35023;BME280;21214;44.912;8.204;2023-07-24T09:23:08;99195.78;;;26.22;100.00
35023;BME280;21214;44.912;8.204;2023-07-24T09:25:34;99170.72;;;26.26;100.00
35023;BME280;21214;44.912;8.204;2023-07-24T09:28:00;99181.03;;;26.29;100.00
35023;BME280;21214;44.912;8.204;2023-07-24T09:30:26;99181.53;;;26.26;100.00
35023;BME280;21214;44.912;8.204;2023-07-24T09:32:52;99186.97;;;26.26;100.00
35023;BME280;21214;44.912;8.204;2023-07-24T09:35:17;99210.06;;;26.17;100.00
35023;BME280;21214;44.912;8.204;2023-07-24T09:37:43;99227.09;;;26.18;100.00
35023;BME280;21214;44.912;8.204;2023-07-24T09:40:09;99190.59;;;26.15;100.00
35023;BME280;21214;44.912;8.204;2023-07-24T09:42:35;99181.91;;;26.13;100.00
35023;BME280;21214;44.912;8.204;2023-07-24T09:45:01;99181.94;;;26.18;100.00
35023;BME280;21214;44.912;8.204;2023-07-24T09:47:27;99194.97;;;26.21;100.00
35023;BME280;21214;44.912;8.204;2023-07-24T09:49:53;99194.97;;;26.21;100.00
35023;BME280;21214;44.912;8.204;2023-07-24T09:52:18;99194.97;;;26.21;100.00
35023;BME280;21214;44.912;8.204;2023-07-24T09:54:49;99190.38;;;26.22;100.00
35023;BME280;21214;44.912;8.204;2023-07-24T09:57:16;99150.06;;;26.20;100.00
35023;BME280;21214;44.912;8.204;2023-07-24T09:59:42;99161.97;;;26.19;100.00
35023;BME280;21214;44.912;8.204;2023-07-24T10:02:09;99175.47;;;26.19;100.00
35023;BME280;21214;44.912;8.204;2023-07-24T10:04:36;99205.16;;;26.14;100.00
35023;BME280;21214;44.912;8.204;2023-07-24T10:07:03;99183.53;;;26.14;100.00
35023;BME280;21214;44.912;8.204;2023-07-24T10:09:29;99173.22;;;26.11;100.00
35023;BME280;21214;44.912;8.204;2023-07-24T10:11:56;99191.59;;;26.09;100.00
35023;BME280;21214;44.912;8.204;2023-07-24T10:14:22;99210.44;;;26.04;100.00
35023;BME280;21214;44.912;8.204;2023-07-24T10:16:47;99231.19;;;25.98;100.00
35023;BME280;21214;44.912;8.204;2023-07-24T10:19:15;99257.34;;;25.93;100.00
35023;BME280;21214;44.912;8.204;2023-07-24T10:21:44;99269.72;;;25.89;100.00
35023;BME280;21214;44.912;8.204;2023-07-24T10:24:10;99220.47;;;25.87;100.00
35023;BME280;21214;44.912;8.204;2023-07-24T10:26:35;99198.03;;;25.86;100.00
35023;BME280;21214;44.912;8.204;2023-07-24T10:29:01;99204.59;;;25.90;100.00
35023;BME280;21214;44.912;8.204;2023-07-24T10:31:27;99203.53;;;25.91;100.00
35023;BME280;21214;44.912;8.204;2023-07-24T10:33:53;99212.47;;;25.92;100.00
35023;BME280;21214;44.912;8.204;2023-07-24T10:36:21;99276.63;;;25.80;100.00
35023;BME280;21214;44.912;8.204;2023-07-24T10:38:52;99232.09;;;25.65;100.00
35023;BME280;21214;44.912;8.204;2023-07-24T10:41:18;99161.78;;;25.60;100.00
35023;BME280;21214;44.912;8.204;2023-07-24T10:43:44;99194.84;;;25.67;100.00
35023;BME280;21214;44.912;8.204;2023-07-24T10:46:10;99176.47;;;25.69;100.00
35023;BME280;21214;44.912;8.204;2023-07-24T10:48:36;99159.78;;;25.73;100.00
35023;BME280;21214;44.912;8.204;2023-07-24T10:51:08;99133.38;;;25.80;100.00
35023;BME280;21214;44.912;8.204;2023-07-24T10:53:35;99149.59;;;25.80;100.00
35023;BME280;21214;44.912;8.204;2023-07-24T10:56:01;99149.91;;;25.83;100.00
35023;BME280;21214;44.912;8.204;2023-07-24T10:58:27;99143.72;;;25.88;100.00
35023;BME280;21214;44.912;8.204;2023-07-24T11:00:52;99133.50;;;25.90;100.00
35023;BME280;21214;44.912;8.204;2023-07-24T11:03:17;99103.00;;;25.94;100.00
35023;BME280;21214;44.912;8.204;2023-07-24T11:05:44;99122.31;;;26.03;100.00
35023;BME280;21214;44.912;8.204;2023-07-24T11:08:13;99112.66;;;26.12;100.00
35023;BME280;21214;44.912;8.204;2023-07-24T11:10:52;99102.53;;;26.24;100.00
35023;BME280;21214;44.912;8.204;2023-07-24T11:13:22;99109.69;;;26.35;100.00
35023;BME280;21214;44.912;8.204;2023-07-24T11:15:48;99096.00;;;26.47;100.00
35023;BME280;21214;44.912;8.204;2023-07-24T11:18:14;99100.69;;;26.57;100.00
35023;BME280;21214;44.912;8.204;2023-07-24T11:21:13;99101.19;;;26.54;100.00
35023;BME280;21214;44.912;8.204;2023-07-24T11:23:33;99116.53;;;26.43;100.00
35023;BME280;21214;44.912;8.204;2023-07-24T11:25:59;99115.63;;;26.32;100.00
35023;BME280;21214;44.912;8.204;2023-07-24T11:28:25;99138.97;;;26.22;100.00
35023;BME280;21214;44.912;8.204;2023-07-24T11:30:50;99122.34;;;26.08;100.00
35023;BME280;21214;44.912;8.204;2023-07-24T11:33:16;99124.72;;;26.04;100.00
35023;BME280;21214;44.912;8.204;2023-07-24T11:35:42;99111.50;;;26.03;100.00
35023;BME280;21214;44.912;8.204;2023-07-24T11:38:08;99087.69;;;26.05;100.00
35023;BME280;21214;44.912;8.204;2023-07-24T11:40:38;99098.50;;;26.05;100.00
35023;BME280;21214;44.912;8.204;2023-07-24T11:43:04;99103.63;;;26.01;100.00
35023;BME280;21214;44.912;8.204;2023-07-24T11:45:29;99100.06;;;25.96;100.00
35023;BME280;21214;44.912;8.204;2023-07-24T11:47:55;99109.22;;;25.95;100.00
35023;BME280;21214;44.912;8.204;2023-07-24T11:50:21;99080.06;;;25.97;100.00
35023;BME280;21214;44.912;8.204;2023-07-24T11:52:48;99049.34;;;26.08;100.00
35023;BME280;21214;44.912;8.204;2023-07-24T11:55:18;99051.72;;;26.26;100.00
35023;BME280;21214;44.912;8.204;2023-07-24T11:57:43;99051.88;;;26.46;100.00
35023;BME280;21214;44.912;8.204;2023-07-24T12:00:20;99060.66;;;26.59;100.00
35023;BME280;21214;44.912;8.204;2023-07-24T12:02:46;99066.06;;;26.59;100.00
35023;BME280;21214;44.912;8.204;2023-07-24T12:05:11;99079.53;;;26.54;100.00
35023;BME280;21214;44.912;8.204;2023-07-24T12:07:37;99078.94;;;26.46;100.00
35023;BME280;21214;44.912;8.204;2023-07-24T12:10:04;99084.06;;;26.43;100.00
35023;BME280;21214;44.912;8.204;2023-07-24T12:12:43;99090.25;;;26.38;100.00
35023;BME280;21214;44.912;8.204;2023-07-24T12:15:08;99093.78;;;26.17;100.00
35023;BME280;21214;44.912;8.204;2023-07-24T12:17:34;99094.34;;;26.19;100.00
35023;BME280;21214;44.912;8.204;2023-07-24T12:20:00;99096.47;;;26.17;100.00
35023;BME280;21214;44.912;8.204;2023-07-24T12:22:25;99090.69;;;26.03;100.00
35023;BME280;21214;44.912;8.204;2023-07-24T12:24:50;99083.19;;;25.89;100.00
35023;BME280;21214;44.912;8.204;2023-07-24T12:27:16;99079.88;;;25.82;100.00
35023;BME280;21214;44.912;8.204;2023-07-24T12:29:41;99075.53;;;25.81;100.00
35023;BME280;21214;44.912;8.204;2023-07-24T12:32:07;99065.59;;;25.86;100.00
35023;BME280;21214;44.912;8.204;2023-07-24T12:34:32;99038.38;;;25.93;100.00
35023;BME280;21214;44.912;8.204;2023-07-24T12:36:58;99025.47;;;26.00;100.00
35023;BME280;21214;44.912;8.204;2023-07-24T12:39:23;99013.72;;;26.16;100.00
35023;BME280;21214;44.912;8.204;2023-07-24T12:41:49;99005.84;;;26.41;100.00
35023;BME280;21214;44.912;8.204;2023-07-24T12:44:14;99017.34;;;26.59;100.00
35023;BME280;21214;44.912;8.204;2023-07-24T12:46:40;99012.56;;;26.71;100.00
35023;BME280;21214;44.912;8.204;2023-07-24T12:49:05;99004.72;;;26.74;100.00
35023;BME280;21214;44.912;8.204;2023-07-24T12:51:30;99004.56;;;26.86;100.00
35023;BME280;21214;44.912;8.204;2023-07-24T12:53:56;99017.66;;;27.04;100.00
35023;BME280;21214;44.912;8.204;2023-07-24T12:56:21;99031.31;;;27.19;100.00
35023;BME280;21214;44.912;8.204;2023-07-24T12:58:47;99040.53;;;27.23;100.00